AirNav   SIMCOM
 
 995 users online  

FL67 Evans Properties Inc Airport
Fort Pierce, Florida, USA

GOING TO FORT PIERCE?


FAA INFORMATION EFFECTIVE 20 JULY 2017

Location

FAA Identifier: FL67
Lat/Long: 27-16-40.1610N / 080-35-09.2000W
27-16.669350N / 080-35.153333W
27.2778225 / -80.5858889
(estimated)
Elevation: 24 ft. / 7 m (estimated)
Variation: 03W (1985)
From city: 17 miles SW of FORT PIERCE, FL
Time zone: UTC -4 (UTC -5 during Standard Time)
Zip code: 34987

Airport Operations

Airport use: Private use. Permission required prior to landing
Control tower: no
ARTCC: MIAMI CENTER
FSS: MIAMI FLIGHT SERVICE STATION
Attendance: UNATNDD
Wind indicator: yes
Segmented circle: no

Airport Communications

WX AWOS-3 at OBE (14 nm W): 118.675 (863-467-1148)
WX ASOS at FPR (17 nm NE): PHONE 772-489-4281

Nearby radio navigation aids

VOR radial/distance  VOR name  Freq  Var
TRVr199/24.6TREASURE VORTAC117.3007W
PHKr011/30.2PAHOKEE VOR/DME115.4000E

 
NDB name  Hdg/Dist  Freq  Var  ID
REYNOLDS211/14.433807WRYD .-. -.-- -..
FORT PIERCE229/16.927507WFPR ..-. .--. .-.
UNITED332/25.940503WUTX ..- - -..-

Airport Services

Airframe service: NONE
Powerplant service: NONE

Runway Information

Runway 9/27

Dimensions: 3000 x 36 ft. / 914 x 11 m
Surface: asphalt
RUNWAY 9  RUNWAY 27
Traffic pattern: leftleft

Airport Ownership and Management from official FAA records

Ownership: Privately-owned
Owner: EVANS PROPERTIES INC
660 BEACHLAND BLVD SUITE 301
VERO BEACH, FL 32963
Phone 561-234-2410
RONALD L. EDWARDS, PRESIDENT.
Manager: PETER MC CLURE
10410 BLUEFIELD ROAD
OKEECHOBEE, FL 34972
Phone 863-763-4869

Instrument Procedures

There are no published instrument procedures at FL67.

Some nearby airports with instrument procedures:

KOBE - Okeechobee County Airport (14 nm W)
KFPR - Treasure Coast International Airport (17 nm NE)
KSUA - Witham Field Airport (20 nm E)
KVRB - Vero Beach Municipal Airport (24 nm N)
06FA - William P Gwinn Airport (26 nm SE)
 
Loc | Ops | Rwys | IFR | FBO | Links
Com | Nav | Svcs | Stats | Notes


 
Area around FL67 (Evans Properties Inc Airport)
 
Road maps at: MapQuest Bing Google
 
Aerial photo
No photo
 
Sectional chart

 
Airport distance calculator
Flying to Evans Properties Inc Airport? Find the distance to fly.

From to FL67

Sunrise and sunset
Times for 23-Jul-2017
 Local
(UTC-4)
 Zulu
(UTC)
Morning civil twilight06:1710:17
Sunrise06:4210:42
Sunset20:1500:15
Evening civil twilight20:4100:41

Current date and time
Zulu (UTC)  23-Jul-2017 22:36:09
Local (UTC-4)  23-Jul-2017 18:36:09
 
METAR
KOBE 
14nm W 
232215Z AUTO 00000KT 10SM BKN039 BKN060 OVC070 28/23 A3003 RMK AO2 LTG DSNT SW
KFPR 
17nm NE 
232153Z 13006KT 10SM CLR 28/24 A3001 RMK AO2 SLP163 T02830244
KSUA 
20nm E 
232147Z 10005KT 7SM FEW040 30/25 A3004
KVRB 
24nm N 
232153Z AUTO 11005KT 10SM CLR 29/24 A3002 RMK AO2 SLP164 T02890239
TAF
KFPR 
17nm NE 
231725Z 2318/2418 18008KT P6SM VCTS SCT035CB SCT080 BKN120 TEMPO 2319/2321 3SM TSRA BKN035CB BKN080 FM232200 VRB04KT P6SM VCSH SCT040 BKN100 FM240200 VRB02KT P6SM FEW040 BKN200 FM241400 21006KT P6SM SCT035 SCT250
KSUA 
20nm E 
231749Z 2318/2418 12007KT P6SM VCTS SCT030CB SCT080 BKN120 TEMPO 2318/2320 VRB12G28KT 3SM TSRA BKN030CB BKN080 FM232200 VRB04KT P6SM VCSH SCT040 BKN100 FM240200 VRB02KT P6SM FEW040 BKN200 FM241400 20006KT P6SM SCT035 SCT250
NOTAMs
Click for the latest NOTAMs
NOTAMs are issued by the DoD/FAA and will open in a separate window not controlled by AirNav.

 

 
 

Would you like to see your business listed on this page?

 If your business provides an interesting product or service to pilots, flight crews, aircraft, or users of the Evans Properties Inc Airport, you should consider listing it here.  To start the listing process, click on the button below
 
Add a business
 

Other Pages about Evans Properties Inc Airport

Update a link
 
Copyright © AirNav, LLC. All rights reserved. Privacy Policy  Contact